Time;durP1;ratioP1;P1;durP2;ratioP2;P2;SDS_P1;SDS_P2;PMS_P1;PMS_P2;Temp;Humidity;BMP_temperature;BMP_pressure;BME280_temperature;BME280_humidity;BME280_pressure;Samples;Min_cycle;Max_cycle;Signal;HPM_P1;HPM_P2
2022/05/10 00:00:53;;;;;;;;;;;13.80;98.10;;;;;;5076300;27;37789;-57
2022/05/10 00:03:21;;;;;;;;;;;13.80;98.30;;;;;;5077525;27;37818;-57
2022/05/10 00:05:48;;;;;;;;;;;13.80;98.00;;;;;;5078763;27;37749;-57
2022/05/10 00:08:16;;;;;;;;;;;13.80;98.10;;;;;;5079477;27;38391;-57
2022/05/10 00:10:44;;;;;;;;;;;13.80;97.90;;;;;;5078910;27;37507;-58
2022/05/10 00:13:11;;;;;;;;;;;13.80;97.90;;;;;;5077996;27;36467;-57
2022/05/10 00:15:41;;;;;;;;;;;13.80;98.00;;;;;;5078499;27;38818;-57
2022/05/10 00:18:09;;;;;;;;;;;13.80;97.90;;;;;;5077954;27;35806;-57
2022/05/10 00:20:36;;;;;;;;;;;13.70;98.40;;;;;;5080187;27;35201;-57
2022/05/10 00:23:04;;;;;;;;;;;13.70;98.80;;;;;;5076878;27;38911;-58
2022/05/10 00:25:31;;;;;;;;;;;13.70;99.40;;;;;;5078988;27;38509;-57
2022/05/10 00:27:59;;;;;;;;;;;13.70;99.50;;;;;;5076732;27;37154;-58
2022/05/10 00:30:26;;;;;;;;;;;13.80;99.30;;;;;;5075997;27;36932;-57
2022/05/10 00:32:54;;;;;;;;;;;13.80;98.80;;;;;;5078944;27;36478;-57
2022/05/10 00:35:24;;;;;;;;;;;13.70;98.60;;;;;;5078195;27;36725;-58
2022/05/10 00:37:52;;;;;;;;;;;13.80;98.20;;;;;;5078829;27;37917;-57
2022/05/10 00:40:20;;;;;;;;;;;13.80;98.80;;;;;;5078227;27;36427;-57
2022/05/10 00:42:51;;;;;;;;;;;13.80;98.80;;;;;;5078219;27;37616;-57
2022/05/10 00:45:20;;;;;;;;;;;13.80;98.80;;;;;;5077433;27;38439;-58
2022/05/10 00:47:49;;;;;;;;;;;13.80;98.70;;;;;;5076652;27;38513;-58
2022/05/10 00:50:21;;;;;;;;;;;13.80;99.00;;;;;;5079143;27;38850;-58
2022/05/10 00:52:51;;;;;;;;;;;13.80;99.20;;;;;;5079223;27;38511;-58
2022/05/10 00:55:21;;;;;;;;;;;13.80;99.50;;;;;;5078712;27;36517;-61
2022/05/10 00:57:50;;;;;;;;;;;13.80;99.80;;;;;;5079878;27;36851;-58
2022/05/10 01:00:19;;;;;;;;;;;13.80;99.90;;;;;;5079499;27;35995;-57
2022/05/10 01:02:51;;;;;;;;;;;13.80;99.90;;;;;;5079376;27;37681;-58
2022/05/10 01:05:20;;;;;;;;;;;13.80;99.90;;;;;;5079452;27;37685;-57
2022/05/10 01:07:52;;;;;;;;;;;13.80;99.90;;;;;;5078152;27;37312;-57
2022/05/10 01:10:25;;;;;;;;;;;13.80;99.90;;;;;;5079065;27;36813;-58
2022/05/10 01:12:55;;;;;;;;;;;13.90;99.90;;;;;;5078584;27;37055;-58
2022/05/10 01:15:24;;;;;;;;;;;13.80;99.90;;;;;;5077070;27;38506;-57
2022/05/10 01:17:52;;;;;;;;;;;13.80;99.90;;;;;;5077669;27;36904;-58
2022/05/10 01:20:24;;;;;;;;;;;13.90;99.90;;;;;;5079139;27;37425;-58
2022/05/10 01:22:57;;;;;;;;;;;13.90;99.90;;;;;;5078740;27;37545;-58
2022/05/10 01:25:32;;;;;;;;;;;13.90;99.70;;;;;;5076799;27;39388;-57
2022/05/10 01:28:22;;;;;;;;;;;13.90;99.80;;;;;;5077595;27;37106;-57
2022/05/10 01:30:49;;;;;;;;;;;13.80;99.70;;;;;;5078049;27;35114;-57
2022/05/10 01:33:31;;;;;;;;;;;13.80;99.10;;;;;;5075960;27;36413;-58
2022/05/10 01:36:13;;;;;;;;;;;13.80;99.20;;;;;;5077251;27;37566;-57
2022/05/10 01:38:43;;;;;;;;;;;13.70;99.10;;;;;;5076926;27;36589;-58
2022/05/10 01:41:16;;;;;;;;;;;13.70;99.40;;;;;;5077516;27;36592;-58
2022/05/10 01:43:46;;;;;;;;;;;13.70;99.30;;;;;;5076342;27;39472;-57
2022/05/10 01:46:16;;;;;;;;;;;13.60;99.30;;;;;;5077057;27;38200;-57
2022/05/10 01:48:44;;;;;;;;;;;13.60;99.50;;;;;;5076087;27;38575;-58
2022/05/10 01:51:15;;;;;;;;;;;13.50;99.40;;;;;;5077469;27;36950;-57
2022/05/10 01:53:42;;;;;;;;;;;13.50;99.30;;;;;;5076309;27;37851;-56
2022/05/10 01:56:11;;;;;;;;;;;13.50;99.30;;;;;;5075933;27;38165;-57
2022/05/10 01:58:40;;;;;;;;;;;13.50;99.30;;;;;;5074444;27;37036;-57
2022/05/10 02:01:10;;;;;;;;;;;13.50;99.40;;;;;;5075207;27;36153;-57
2022/05/10 02:03:42;;;;;;;;;;;13.50;99.40;;;;;;5075257;27;37101;-57
2022/05/10 02:06:17;;;;;;;;;;;13.50;99.30;;;;;;5076056;27;36859;-57
2022/05/10 02:08:48;;;;;;;;;;;13.60;99.30;;;;;;5075203;27;35826;-57
2022/05/10 02:11:16;;;;;;;;;;;13.50;99.20;;;;;;5075513;27;36588;-56
2022/05/10 02:13:46;;;;;;;;;;;13.60;99.20;;;;;;5076763;27;38460;-57
2022/05/10 02:16:18;;;;;;;;;;;13.60;99.30;;;;;;5077004;27;37985;-57
2022/05/10 02:18:50;;;;;;;;;;;13.70;99.20;;;;;;5076843;27;30320;-57
2022/05/10 02:21:19;;;;;;;;;;;13.70;99.40;;;;;;5075951;27;37071;-57
2022/05/10 02:23:49;;;;;;;;;;;13.70;99.30;;;;;;5074310;27;37072;-57
2022/05/10 02:26:19;;;;;;;;;;;13.70;99.10;;;;;;5076311;27;38037;-57
2022/05/10 02:28:48;;;;;;;;;;;13.70;98.90;;;;;;5076855;27;36695;-57
2022/05/10 02:31:20;;;;;;;;;;;13.60;98.90;;;;;;5076207;27;35873;-58
2022/05/10 02:33:47;;;;;;;;;;;13.70;98.80;;;;;;5076254;27;36355;-57
2022/05/10 02:36:14;;;;;;;;;;;13.70;98.80;;;;;;5076600;27;38051;-57
2022/05/10 02:38:41;;;;;;;;;;;13.70;98.70;;;;;;5075496;27;37380;-57
2022/05/10 02:41:10;;;;;;;;;;;13.80;98.50;;;;;;5076242;27;37562;-57
2022/05/10 02:43:46;;;;;;;;;;;13.80;98.60;;;;;;5074095;27;37288;-58
2022/05/10 02:46:14;;;;;;;;;;;13.80;98.60;;;;;;5073781;27;38671;-57
2022/05/10 02:48:43;;;;;;;;;;;13.80;98.40;;;;;;5075418;27;38826;-57
2022/05/10 02:51:10;;;;;;;;;;;13.80;98.50;;;;;;5077895;27;35455;-57
2022/05/10 02:53:37;;;;;;;;;;;13.80;98.50;;;;;;5074433;27;38097;-57
2022/05/10 02:56:05;;;;;;;;;;;13.90;98.60;;;;;;5077069;27;38577;-57
2022/05/10 02:58:34;;;;;;;;;;;13.90;98.70;;;;;;5076857;27;37951;-57
2022/05/10 03:01:05;;;;;;;;;;;13.90;98.40;;;;;;5073555;27;35304;-57
2022/05/10 03:03:33;;;;;;;;;;;13.90;98.40;;;;;;5076749;27;37878;-57
2022/05/10 03:06:01;;;;;;;;;;;13.90;98.20;;;;;;5076879;27;38455;-57
2022/05/10 03:08:28;;;;;;;;;;;13.90;97.90;;;;;;5074338;27;37607;-57
2022/05/10 03:10:55;;;;;;;;;;;13.90;97.80;;;;;;5076425;27;36635;-57
2022/05/10 03:13:22;;;;;;;;;;;13.90;97.70;;;;;;5075116;27;37336;-57
2022/05/10 03:15:49;;;;;;;;;;;13.90;97.70;;;;;;5075042;27;38921;-57
2022/05/10 03:18:16;;;;;;;;;;;13.90;97.70;;;;;;5074754;27;40091;-57
2022/05/10 03:20:43;;;;;;;;;;;14.00;97.70;;;;;;5074276;27;36938;-57
2022/05/10 03:23:12;;;;;;;;;;;14.00;97.90;;;;;;5073857;27;38640;-58
2022/05/10 03:25:39;;;;;;;;;;;14.10;98.00;;;;;;5076684;27;35077;-57
2022/05/10 03:28:06;;;;;;;;;;;14.00;97.80;;;;;;5075031;27;36984;-57
2022/05/10 03:30:34;;;;;;;;;;;14.10;97.60;;;;;;5074952;27;36205;-57
2022/05/10 03:33:01;;;;;;;;;;;14.10;97.30;;;;;;5074368;27;37892;-57
2022/05/10 03:35:28;;;;;;;;;;;14.10;96.80;;;;;;5074226;27;37952;-57
2022/05/10 03:37:55;;;;;;;;;;;14.10;96.90;;;;;;5073609;27;36966;-57
2022/05/10 03:40:24;;;;;;;;;;;14.10;96.80;;;;;;5074986;27;36335;-57
2022/05/10 03:42:51;;;;;;;;;;;14.10;96.70;;;;;;5074454;27;37645;-57
2022/05/10 03:45:20;;;;;;;;;;;14.20;96.90;;;;;;5074267;27;38171;-57
2022/05/10 03:47:47;;;;;;;;;;;14.20;97.00;;;;;;5074846;27;37198;-57
2022/05/10 03:50:15;;;;;;;;;;;14.20;97.00;;;;;;5075260;27;37074;-57
2022/05/10 03:52:42;;;;;;;;;;;14.20;97.10;;;;;;5074540;27;38910;-57
2022/05/10 03:55:11;;;;;;;;;;;14.30;97.30;;;;;;5074405;27;39753;-57
2022/05/10 03:57:39;;;;;;;;;;;14.30;97.20;;;;;;5076023;27;37432;-57
2022/05/10 04:00:08;;;;;;;;;;;14.30;97.20;;;;;;5074590;27;36337;-57
2022/05/10 04:02:35;;;;;;;;;;;14.30;97.30;;;;;;5075410;27;38810;-57
2022/05/10 04:05:02;;;;;;;;;;;14.30;97.40;;;;;;5075269;27;38541;-57
2022/05/10 04:07:29;;;;;;;;;;;14.40;97.50;;;;;;5074467;27;37545;-57
2022/05/10 04:09:56;;;;;;;;;;;14.40;97.20;;;;;;5076186;27;37619;-57
2022/05/10 04:12:23;;;;;;;;;;;14.40;97.20;;;;;;5075535;27;39734;-57
2022/05/10 04:14:52;;;;;;;;;;;14.40;97.20;;;;;;5075502;27;36726;-57
2022/05/10 04:17:19;;;;;;;;;;;14.40;97.00;;;;;;5074591;27;36879;-57
2022/05/10 04:19:46;;;;;;;;;;;14.50;97.10;;;;;;5074623;27;37079;-57
2022/05/10 04:22:13;;;;;;;;;;;14.50;96.90;;;;;;5075875;27;36471;-57
2022/05/10 04:24:40;;;;;;;;;;;14.50;97.10;;;;;;5073911;27;37852;-58
2022/05/10 04:27:07;;;;;;;;;;;14.50;97.20;;;;;;5074294;27;35844;-57
2022/05/10 04:29:34;;;;;;;;;;;14.50;97.30;;;;;;5074745;27;36944;-57
2022/05/10 04:32:03;;;;;;;;;;;14.50;97.40;;;;;;5074494;27;37629;-57
2022/05/10 04:34:30;;;;;;;;;;;14.60;97.40;;;;;;5075031;27;39805;-57
2022/05/10 04:36:57;;;;;;;;;;;14.50;97.00;;;;;;5078735;27;36010;-58
2022/05/10 04:39:24;;;;;;;;;;;14.60;97.10;;;;;;5077725;27;37022;-57
2022/05/10 04:41:52;;;;;;;;;;;14.60;97.00;;;;;;5078361;27;36554;-57
2022/05/10 04:44:19;;;;;;;;;;;14.60;96.90;;;;;;5078102;27;37747;-57
2022/05/10 04:46:46;;;;;;;;;;;14.70;96.90;;;;;;5077585;27;36206;-57
2022/05/10 04:49:15;;;;;;;;;;;14.70;96.50;;;;;;5077144;27;35453;-57
2022/05/10 04:51:42;;;;;;;;;;;14.70;96.40;;;;;;5080193;27;41071;-57
2022/05/10 04:54:09;;;;;;;;;;;14.80;96.30;;;;;;5079215;27;38609;-57
2022/05/10 04:56:36;;;;;;;;;;;14.80;96.20;;;;;;5080178;27;37946;-57
2022/05/10 04:59:03;;;;;;;;;;;14.80;95.90;;;;;;5080161;27;37123;-57
2022/05/10 05:01:31;;;;;;;;;;;14.80;95.80;;;;;;5079867;27;38960;-57
2022/05/10 05:04:00;;;;;;;;;;;14.80;95.60;;;;;;5080975;27;37444;-57
2022/05/10 05:06:29;;;;;;;;;;;14.90;95.50;;;;;;5079308;27;36898;-57
2022/05/10 05:08:57;;;;;;;;;;;14.90;95.30;;;;;;5079224;27;35107;-57
2022/05/10 05:11:24;;;;;;;;;;;14.90;95.00;;;;;;5079416;27;36940;-58
2022/05/10 05:13:51;;;;;;;;;;;14.90;94.90;;;;;;5078843;27;38714;-58
2022/05/10 05:16:19;;;;;;;;;;;15.00;94.80;;;;;;5077664;27;37259;-57
2022/05/10 05:18:46;;;;;;;;;;;15.00;94.80;;;;;;5078650;27;36930;-57
2022/05/10 05:21:13;;;;;;;;;;;15.00;94.80;;;;;;5079149;27;37618;-58
2022/05/10 05:23:42;;;;;;;;;;;15.10;94.80;;;;;;5079726;27;38425;-57
2022/05/10 05:26:09;;;;;;;;;;;15.10;94.80;;;;;;5079826;27;39462;-57
2022/05/10 05:28:36;;;;;;;;;;;15.10;94.50;;;;;;5079284;27;36811;-57
2022/05/10 05:31:04;;;;;;;;;;;15.10;94.60;;;;;;5078749;27;36517;-57
2022/05/10 05:33:31;;;;;;;;;;;15.10;94.60;;;;;;5079528;27;38222;-58
2022/05/10 05:35:58;;;;;;;;;;;15.20;94.60;;;;;;5079803;27;37196;-57
2022/05/10 05:38:26;;;;;;;;;;;15.20;95.20;;;;;;5079028;27;36339;-58
2022/05/10 05:40:54;;;;;;;;;;;15.20;94.30;;;;;;5078352;27;38466;-57
2022/05/10 05:43:23;;;;;;;;;;;15.20;94.40;;;;;;5079299;27;39769;-58
2022/05/10 05:45:50;;;;;;;;;;;15.30;94.40;;;;;;5078482;27;37264;-58
2022/05/10 05:48:17;;;;;;;;;;;15.30;94.50;;;;;;5078957;27;37903;-57
2022/05/10 05:50:45;;;;;;;;;;;15.30;94.90;;;;;;5078976;27;40138;-56
2022/05/10 05:53:12;;;;;;;;;;;15.30;95.20;;;;;;5078064;27;38079;-56
2022/05/10 05:55:40;;;;;;;;;;;15.30;94.80;;;;;;5078631;27;36908;-56
2022/05/10 05:58:08;;;;;;;;;;;15.30;94.70;;;;;;5078531;27;36365;-56
2022/05/10 06:00:36;;;;;;;;;;;15.40;94.70;;;;;;5078396;27;36527;-56
2022/05/10 06:03:03;;;;;;;;;;;15.50;94.80;;;;;;5076962;27;39791;-55
2022/05/10 06:05:31;;;;;;;;;;;15.50;94.80;;;;;;5077878;27;37092;-56
2022/05/10 06:07:58;;;;;;;;;;;15.60;94.80;;;;;;5075813;27;36420;-55
2022/05/10 06:10:25;;;;;;;;;;;15.60;95.10;;;;;;5074195;27;38776;-56
2022/05/10 06:12:52;;;;;;;;;;;15.70;95.20;;;;;;5076799;27;36683;-56
2022/05/10 06:15:21;;;;;;;;;;;15.80;95.40;;;;;;5076009;27;36954;-56
2022/05/10 06:17:49;;;;;;;;;;;15.90;95.70;;;;;;5077483;27;37278;-56
2022/05/10 06:20:18;;;;;;;;;;;16.00;95.10;;;;;;5078076;27;37748;-56
2022/05/10 06:22:45;;;;;;;;;;;16.20;95.50;;;;;;5078451;27;38001;-56
2022/05/10 06:25:15;;;;;;;;;;;16.40;95.00;;;;;;5078233;27;37380;-57
2022/05/10 06:27:42;;;;;;;;;;;16.50;94.60;;;;;;5077691;27;37045;-57
2022/05/10 06:30:09;;;;;;;;;;;16.70;94.40;;;;;;5078349;27;36528;-57
2022/05/10 06:32:38;;;;;;;;;;;16.90;93.70;;;;;;5077182;27;38164;-57
2022/05/10 06:35:05;;;;;;;;;;;17.00;93.30;;;;;;5077010;27;40095;-57
2022/05/10 06:40:17;;;;;;;;;;;17.30;92.70;;;;;;5079066;27;39121;-54
2022/05/10 06:42:45;;;;;;;;;;;17.50;93.00;;;;;;5076830;27;38056;-54
2022/05/10 06:45:13;;;;;;;;;;;17.60;92.50;;;;;;5077165;27;36936;-54
2022/05/10 06:47:42;;;;;;;;;;;17.80;92.60;;;;;;5077507;27;35101;-54
2022/05/10 06:50:11;;;;;;;;;;;17.90;92.30;;;;;;5077444;27;37617;-54
2022/05/10 06:52:38;;;;;;;;;;;18.00;91.90;;;;;;5078460;27;39075;-54
2022/05/10 06:55:06;;;;;;;;;;;18.00;91.60;;;;;;5078462;27;37085;-54
2022/05/10 06:57:33;;;;;;;;;;;18.10;91.30;;;;;;5077763;27;37551;-54
2022/05/10 07:00:00;;;;;;;;;;;18.00;91.80;;;;;;5076085;27;38306;-54
2022/05/10 07:02:27;;;;;;;;;;;18.10;91.70;;;;;;5077487;27;38083;-55
2022/05/10 07:04:56;;;;;;;;;;;18.10;91.30;;;;;;5076330;27;37435;-55
2022/05/10 07:07:23;;;;;;;;;;;18.20;91.80;;;;;;5076413;27;36935;-54
2022/05/10 07:09:52;;;;;;;;;;;18.20;91.40;;;;;;5078501;27;36575;-54
2022/05/10 07:12:19;;;;;;;;;;;18.30;91.00;;;;;;5076624;27;36648;-55
2022/05/10 07:14:46;;;;;;;;;;;18.30;90.40;;;;;;5075569;27;37164;-55
2022/05/10 07:17:13;;;;;;;;;;;18.40;90.30;;;;;;5076029;27;36921;-55
2022/05/10 07:19:40;;;;;;;;;;;18.40;91.50;;;;;;5076883;27;38024;-55
2022/05/10 07:22:09;;;;;;;;;;;18.50;90.90;;;;;;5075628;27;38065;-55
2022/05/10 07:24:36;;;;;;;;;;;18.60;90.90;;;;;;5074801;27;38175;-55
2022/05/10 07:27:03;;;;;;;;;;;18.60;90.70;;;;;;5074015;27;35936;-55
2022/05/10 07:29:31;;;;;;;;;;;18.80;91.20;;;;;;5076715;27;40028;-55
2022/05/10 07:31:58;;;;;;;;;;;18.90;91.20;;;;;;5076249;27;36620;-55
2022/05/10 07:34:25;;;;;;;;;;;18.90;89.40;;;;;;5076454;27;37390;-55
2022/05/10 07:36:52;;;;;;;;;;;19.00;89.50;;;;;;5075991;27;36154;-57
2022/05/10 07:39:21;;;;;;;;;;;19.10;88.50;;;;;;5076618;27;37879;-57
2022/05/10 07:41:53;;;;;;;;;;;19.20;88.70;;;;;;5076054;27;36733;-57
2022/05/10 07:44:21;;;;;;;;;;;19.30;90.10;;;;;;5076154;27;37276;-57
2022/05/10 07:46:48;;;;;;;;;;;19.30;90.20;;;;;;5075828;27;36442;-57
2022/05/10 07:49:15;;;;;;;;;;;19.30;88.20;;;;;;5077367;27;37578;-58
2022/05/10 07:51:42;;;;;;;;;;;19.30;88.40;;;;;;5077002;27;36800;-57
2022/05/10 07:54:10;;;;;;;;;;;19.30;88.30;;;;;;5076730;27;37127;-57
2022/05/10 07:56:40;;;;;;;;;;;19.20;88.60;;;;;;5077245;27;36153;-57
2022/05/10 07:59:08;;;;;;;;;;;19.20;86.50;;;;;;5077670;27;37920;-57
2022/05/10 08:01:35;;;;;;;;;;;19.20;88.00;;;;;;5077418;27;38142;-57
2022/05/10 08:04:02;;;;;;;;;;;19.20;88.70;;;;;;5077714;27;35747;-57
2022/05/10 08:06:29;;;;;;;;;;;19.10;89.90;;;;;;5078801;27;38708;-56
2022/05/10 08:08:56;;;;;;;;;;;19.20;89.40;;;;;;5076109;27;38406;-57
2022/05/10 08:11:24;;;;;;;;;;;19.20;88.10;;;;;;5081304;27;38258;-57
2022/05/10 08:13:52;;;;;;;;;;;19.30;88.30;;;;;;5082265;27;37559;-57
2022/05/10 08:16:19;;;;;;;;;;;19.30;87.60;;;;;;5080749;27;36160;-57
2022/05/10 08:18:48;;;;;;;;;;;19.40;88.60;;;;;;5081075;27;37183;-57
2022/05/10 08:21:16;;;;;;;;;;;19.40;88.00;;;;;;5081530;27;36801;-57
2022/05/10 08:23:43;;;;;;;;;;;19.40;89.00;;;;;;5079735;27;36465;-57
2022/05/10 08:26:10;;;;;;;;;;;19.40;87.70;;;;;;5081499;27;36465;-57
2022/05/10 08:28:37;;;;;;;;;;;19.40;88.10;;;;;;5081470;27;38282;-57
2022/05/10 08:31:07;;;;;;;;;;;19.40;87.10;;;;;;5081451;27;38057;-57
2022/05/10 08:33:36;;;;;;;;;;;19.50;86.30;;;;;;5081063;27;36484;-57
2022/05/10 08:36:03;;;;;;;;;;;19.50;86.80;;;;;;5082326;27;35027;-58
2022/05/10 08:38:31;;;;;;;;;;;19.60;86.20;;;;;;5081153;27;37648;-57
2022/05/10 08:41:01;;;;;;;;;;;19.70;85.00;;;;;;5080787;27;39203;-56
2022/05/10 08:43:31;;;;;;;;;;;19.70;86.30;;;;;;5081226;27;36889;-57
2022/05/10 08:45:58;;;;;;;;;;;19.80;87.00;;;;;;5081365;27;36412;-57
2022/05/10 08:48:28;;;;;;;;;;;19.80;85.70;;;;;;5081282;27;37715;-57
2022/05/10 08:50:56;;;;;;;;;;;19.80;85.10;;;;;;5081124;27;37802;-57
2022/05/10 08:53:24;;;;;;;;;;;19.80;85.00;;;;;;5078584;27;37482;-57
2022/05/10 08:55:53;;;;;;;;;;;19.80;84.90;;;;;;5081580;27;33934;-57
2022/05/10 08:58:32;;;;;;;;;;;19.80;85.60;;;;;;5081002;27;37953;-61
2022/05/10 09:01:02;;;;;;;;;;;19.90;83.30;;;;;;5079870;27;40295;-57
2022/05/10 09:03:34;;;;;;;;;;;19.90;81.30;;;;;;5082367;27;37008;-57
2022/05/10 09:06:03;;;;;;;;;;;19.90;82.90;;;;;;5081107;27;36527;-57
2022/05/10 09:08:33;;;;;;;;;;;19.90;82.20;;;;;;5076617;27;38426;-57
2022/05/10 09:11:01;;;;;;;;;;;19.90;83.30;;;;;;5080015;27;36605;-57
2022/05/10 09:13:28;;;;;;;;;;;20.00;82.90;;;;;;5081098;27;36893;-57
2022/05/10 09:15:57;;;;;;;;;;;20.00;81.20;;;;;;5079270;27;36287;-57
2022/05/10 09:18:26;;;;;;;;;;;20.00;81.60;;;;;;5079924;27;37963;-57
2022/05/10 09:21:03;;;;;;;;;;;20.00;80.60;;;;;;5079964;27;38078;-57
2022/05/10 09:23:35;;;;;;;;;;;20.00;80.40;;;;;;5078355;27;37089;-57
2022/05/10 09:26:02;;;;;;;;;;;20.10;80.00;;;;;;5081193;27;36416;-57
2022/05/10 09:28:34;;;;;;;;;;;20.20;80.30;;;;;;5080374;27;37924;-57
2022/05/10 09:36:52;;;;;;;;;;;20.40;76.90;;;;;;5079317;27;36946;-57
2022/05/10 09:39:23;;;;;;;;;;;20.50;79.70;;;;;;5078110;27;38721;-57
2022/05/10 09:41:53;;;;;;;;;;;20.50;82.40;;;;;;5078902;27;39368;-57
2022/05/10 09:44:22;;;;;;;;;;;20.70;80.40;;;;;;5079876;27;36050;-58
2022/05/10 09:46:49;;;;;;;;;;;20.80;77.50;;;;;;5079272;27;36942;-58
2022/05/10 09:49:34;;;;;;;;;;;21.00;79.10;;;;;;5078691;27;41324;-57
2022/05/10 09:52:02;;;;;;;;;;;21.20;80.20;;;;;;5079095;27;36675;-57
2022/05/10 09:54:34;;;;;;;;;;;21.30;76.10;;;;;;5078892;27;37934;-58
2022/05/10 09:57:01;;;;;;;;;;;21.40;77.50;;;;;;5077297;27;36621;-58
2022/05/10 09:59:29;;;;;;;;;;;21.30;74.00;;;;;;5079271;27;37556;-57
2022/05/10 10:01:58;;;;;;;;;;;21.10;72.00;;;;;;5079838;27;38196;-57
2022/05/10 10:04:28;;;;;;;;;;;21.00;74.20;;;;;;5080241;27;37668;-57
2022/05/10 10:07:05;;;;;;;;;;;21.00;75.00;;;;;;5079851;27;36883;-57
2022/05/10 10:09:34;;;;;;;;;;;21.00;75.80;;;;;;5079102;27;37481;-57
2022/05/10 10:12:02;;;;;;;;;;;21.00;77.40;;;;;;5079836;27;37773;-58
2022/05/10 10:14:38;;;;;;;;;;;21.00;76.30;;;;;;5079760;27;35881;-58
2022/05/10 10:17:06;;;;;;;;;;;21.10;78.00;;;;;;5079005;27;36523;-58
2022/05/10 10:19:36;;;;;;;;;;;21.10;78.60;;;;;;5078580;27;37732;-57
2022/05/10 10:22:06;;;;;;;;;;;21.30;77.90;;;;;;5078026;27;38531;-58
2022/05/10 10:24:36;;;;;;;;;;;21.40;78.80;;;;;;5079538;27;38012;-58
2022/05/10 10:27:06;;;;;;;;;;;21.50;77.20;;;;;;5080739;27;35933;-58
2022/05/10 10:29:35;;;;;;;;;;;21.60;78.20;;;;;;5079415;27;37753;-57
2022/05/10 10:32:05;;;;;;;;;;;21.60;77.00;;;;;;5079034;27;37832;-58
2022/05/10 10:34:37;;;;;;;;;;;21.60;76.60;;;;;;5079004;27;36061;-57
2022/05/10 10:37:07;;;;;;;;;;;21.60;78.10;;;;;;5080149;27;36701;-57
2022/05/10 10:39:36;;;;;;;;;;;21.70;78.50;;;;;;5077529;27;37648;-57
2022/05/10 10:42:08;;;;;;;;;;;21.70;76.90;;;;;;5077489;27;38059;-58
2022/05/10 10:44:38;;;;;;;;;;;21.70;74.00;;;;;;5078306;27;35911;-58
2022/05/10 10:47:08;;;;;;;;;;;21.70;75.50;;;;;;5079095;27;36711;-58
2022/05/10 10:49:39;;;;;;;;;;;21.60;77.60;;;;;;5077904;27;36608;-58
2022/05/10 10:52:08;;;;;;;;;;;21.60;78.30;;;;;;5076827;27;36739;-58
2022/05/10 10:54:36;;;;;;;;;;;21.50;78.20;;;;;;5077417;27;36015;-58
2022/05/10 10:57:15;;;;;;;;;;;21.50;73.90;;;;;;5077748;27;36663;-57
2022/05/10 10:59:48;;;;;;;;;;;21.40;75.20;;;;;;5075431;27;37818;-58
2022/05/10 11:02:30;;;;;;;;;;;21.30;75.30;;;;;;5077199;27;38022;-57
2022/05/10 11:05:18;;;;;;;;;;;21.20;74.80;;;;;;5074943;27;36846;-58
2022/05/10 11:07:49;;;;;;;;;;;21.20;75.30;;;;;;5077570;27;36414;-58
2022/05/10 11:10:23;;;;;;;;;;;21.10;76.70;;;;;;5076413;27;37803;-58
2022/05/10 11:12:56;;;;;;;;;;;21.00;74.90;;;;;;5078057;27;37794;-58
2022/05/10 11:15:32;;;;;;;;;;;21.00;76.50;;;;;;5077844;27;37904;-58
2022/05/10 11:18:10;;;;;;;;;;;20.90;75.00;;;;;;5076110;27;38272;-58
2022/05/10 11:20:45;;;;;;;;;;;20.90;76.50;;;;;;5078530;27;38605;-58
2022/05/10 11:23:15;;;;;;;;;;;20.90;76.60;;;;;;5078253;27;38874;-57
2022/05/10 11:25:58;;;;;;;;;;;20.90;76.70;;;;;;5078939;27;37696;-58
2022/05/10 11:28:29;;;;;;;;;;;21.00;74.40;;;;;;5079058;27;35716;-58
2022/05/10 11:31:00;;;;;;;;;;;21.10;74.80;;;;;;5077295;27;37515;-58
2022/05/10 11:33:30;;;;;;;;;;;21.10;76.70;;;;;;5074487;27;39520;-58
2022/05/10 11:36:02;;;;;;;;;;;21.10;77.10;;;;;;5077335;27;35991;-59
2022/05/10 11:38:45;;;;;;;;;;;21.10;76.20;;;;;;5077211;27;35123;-58
2022/05/10 11:41:16;;;;;;;;;;;21.10;76.20;;;;;;5075267;27;38031;-58
2022/05/10 11:43:50;;;;;;;;;;;21.10;75.80;;;;;;5077793;27;39516;-58
2022/05/10 11:46:41;;;;;;;;;;;21.00;78.40;;;;;;5078930;27;37458;-58
2022/05/10 11:49:19;;;;;;;;;;;21.00;78.60;;;;;;5062826;27;36212;-58
2022/05/10 11:51:53;;;;;;;;;;;21.00;77.90;;;;;;5081003;27;38432;-58
2022/05/10 11:54:36;;;;;;;;;;;21.20;80.40;;;;;;5079358;27;38162;-58
2022/05/10 11:57:06;;;;;;;;;;;21.30;80.90;;;;;;5080284;27;37654;-58
2022/05/10 11:59:35;;;;;;;;;;;21.50;80.20;;;;;;5080660;27;36188;-58
2022/05/10 12:02:03;;;;;;;;;;;21.50;79.90;;;;;;5079957;27;38407;-58
2022/05/10 12:04:35;;;;;;;;;;;21.70;78.40;;;;;;5080431;27;37813;-59
2022/05/10 12:07:20;;;;;;;;;;;21.70;77.60;;;;;;5079187;27;37825;-58
2022/05/10 12:09:58;;;;;;;;;;;21.80;80.40;;;;;;5078540;27;36242;-58
2022/05/10 12:12:43;;;;;;;;;;;21.80;79.60;;;;;;5081036;27;36354;-57
2022/05/10 12:21:21;;;;;;;;;;;21.90;78.60;;;;;;5063905;28;37052;-58
2022/05/10 12:24:15;;;;;;;;;;;21.80;78.60;;;;;;5059460;28;38067;-57
2022/05/10 12:26:47;;;;;;;;;;;21.80;79.50;;;;;;5077284;27;38265;-58
2022/05/10 12:29:34;;;;;;;;;;;21.80;79.70;;;;;;5077879;27;38716;-58
2022/05/10 12:32:03;;;;;;;;;;;21.80;76.70;;;;;;5078650;27;36337;-58
2022/05/10 12:34:47;;;;;;;;;;;21.70;77.70;;;;;;5079819;27;39344;-58
2022/05/10 12:37:38;;;;;;;;;;;21.70;77.80;;;;;;5081016;27;38198;-58
2022/05/10 12:40:16;;;;;;;;;;;21.70;78.40;;;;;;5077892;27;35993;-58
2022/05/10 12:42:51;;;;;;;;;;;21.60;78.60;;;;;;5080299;27;35170;-58
2022/05/10 12:45:25;;;;;;;;;;;21.60;74.50;;;;;;5078302;27;38614;-58
2022/05/10 12:48:06;;;;;;;;;;;21.60;74.20;;;;;;5074593;27;37712;-58
2022/05/10 12:50:55;;;;;;;;;;;21.50;69.70;;;;;;5079102;27;35974;-58
2022/05/10 12:53:25;;;;;;;;;;;21.40;68.50;;;;;;5077606;27;36757;-58
2022/05/10 12:55:52;;;;;;;;;;;21.30;68.50;;;;;;5078428;27;37653;-58
2022/05/10 12:58:23;;;;;;;;;;;21.30;67.40;;;;;;5080762;27;38286;-58
2022/05/10 13:00:53;;;;;;;;;;;21.20;65.10;;;;;;5079725;27;36454;-58
2022/05/10 13:03:23;;;;;;;;;;;21.20;66.30;;;;;;5081213;27;35261;-56
2022/05/10 13:06:03;;;;;;;;;;;21.20;66.20;;;;;;5079096;27;40238;-56
2022/05/10 13:08:41;;;;;;;;;;;21.20;62.50;;;;;;5077713;27;38147;-56
2022/05/10 13:11:08;;;;;;;;;;;21.20;61.30;;;;;;5079805;27;38124;-55
2022/05/10 13:13:37;;;;;;;;;;;21.10;61.30;;;;;;5079253;27;36368;-55
2022/05/10 13:16:13;;;;;;;;;;;21.10;59.30;;;;;;5077928;27;37560;-55
2022/05/10 13:18:43;;;;;;;;;;;21.00;61.90;;;;;;5079146;27;39024;-55
2022/05/10 13:21:10;;;;;;;;;;;21.00;63.80;;;;;;5079316;27;37001;-55
2022/05/10 13:23:40;;;;;;;;;;;21.00;61.60;;;;;;5078680;27;36146;-55
2022/05/10 13:26:08;;;;;;;;;;;21.00;61.20;;;;;;5077063;27;38363;-55
2022/05/10 13:28:50;;;;;;;;;;;20.90;61.80;;;;;;5078244;27;37844;-55
2022/05/10 13:31:20;;;;;;;;;;;20.90;62.90;;;;;;5078226;27;37040;-54
2022/05/10 13:33:49;;;;;;;;;;;20.90;59.40;;;;;;5077698;27;35077;-55
2022/05/10 13:36:18;;;;;;;;;;;20.80;57.80;;;;;;5078808;27;37979;-55
2022/05/10 13:38:47;;;;;;;;;;;20.70;56.70;;;;;;5076420;27;39821;-55
2022/05/10 13:41:22;;;;;;;;;;;20.60;56.00;;;;;;5080473;27;38036;-55
2022/05/10 13:43:51;;;;;;;;;;;20.60;55.60;;;;;;5078920;27;36176;-55
2022/05/10 13:46:20;;;;;;;;;;;20.50;55.40;;;;;;5079004;27;38529;-55
2022/05/10 13:48:48;;;;;;;;;;;20.50;54.40;;;;;;5077663;27;37926;-55
2022/05/10 13:51:17;;;;;;;;;;;20.40;55.10;;;;;;5080325;27;37204;-56
2022/05/10 13:53:55;;;;;;;;;;;20.50;55.80;;;;;;5077071;27;36169;-56
2022/05/10 13:56:24;;;;;;;;;;;20.40;57.00;;;;;;5077341;27;39230;-55
2022/05/10 13:58:52;;;;;;;;;;;20.40;57.30;;;;;;5078878;27;39026;-56
2022/05/10 14:01:31;;;;;;;;;;;20.40;56.30;;;;;;5079732;27;38560;-55
2022/05/10 14:04:01;;;;;;;;;;;20.40;56.60;;;;;;5078182;27;36238;-55
2022/05/10 14:06:32;;;;;;;;;;;20.40;55.20;;;;;;5077143;27;39232;-56
2022/05/10 14:09:04;;;;;;;;;;;20.30;54.40;;;;;;5078104;27;36751;-56
2022/05/10 14:11:31;;;;;;;;;;;20.20;53.60;;;;;;5080290;27;37804;-56
2022/05/10 14:13:59;;;;;;;;;;;20.20;55.30;;;;;;5079304;27;35726;-55
2022/05/10 14:16:33;;;;;;;;;;;20.00;55.20;;;;;;5078519;27;37727;-55
2022/05/10 14:19:05;;;;;;;;;;;19.90;56.80;;;;;;5078649;27;37936;-55
2022/05/10 14:21:33;;;;;;;;;;;19.80;57.30;;;;;;5078330;27;37383;-55
2022/05/10 14:24:01;;;;;;;;;;;19.80;59.00;;;;;;5080012;27;36402;-55
2022/05/10 14:26:33;;;;;;;;;;;19.70;59.70;;;;;;5078448;27;36552;-55
2022/05/10 14:29:09;;;;;;;;;;;19.70;59.60;;;;;;5078222;27;37716;-55
2022/05/10 14:31:37;;;;;;;;;;;19.70;59.10;;;;;;5078959;27;37397;-55
2022/05/10 14:34:04;;;;;;;;;;;19.60;58.40;;;;;;5077770;27;36444;-55
2022/05/10 14:36:35;;;;;;;;;;;19.50;60.20;;;;;;5079027;27;37537;-55
2022/05/10 14:39:04;;;;;;;;;;;19.40;59.60;;;;;;5078550;27;38537;-55
2022/05/10 14:41:33;;;;;;;;;;;19.30;60.40;;;;;;5078732;27;36164;-55
2022/05/10 14:44:11;;;;;;;;;;;19.30;60.60;;;;;;5075123;27;36688;-55
2022/05/10 14:46:46;;;;;;;;;;;19.20;60.30;;;;;;5076695;27;39591;-55